Weather at Biaugunu Airport [CLOSED]

Public forecast

Using degrees Celsius for public forecast. Weather courtesy of forecast.io.

Closest aviation weather report (METAR) to Biaugunu Airport

Report is more than 6 hours old.

Closest report is Labasa Airport, 23.1 nm (42.7 km) W. Retrieved 2022/09/17 19:00 UTC (13 days ago):

NFNL 171900Z VRB01KT 9999 -SHRA SCT028 BKN048 21/21 Q1017

Closest aviation forecast (TAF) to Biaugunu Airport

Forecast is more than 12 hours old.

Closest forecast is Nausori International Airport, 117.2 nm (217.1 km) SW. Retrieved 2022/09/17 18:00 UTC (13 days ago):

TAF NFNA 171701Z 1718/1818 13005KT 9999 FEW012 BKN045 PROB30 TEMPO 1800/1809 5000 SHRA BKN015